createdAt,value
2023-07-25T00:00:12.590Z,63.6
2023-07-25T00:01:28.719Z,63.6
2023-07-25T00:02:44.858Z,63.6
2023-07-25T00:04:00.978Z,63.6
2023-07-25T00:05:17.128Z,63.6
2023-07-25T00:06:33.273Z,63.6
2023-07-25T00:07:49.394Z,63.6
2023-07-25T00:09:05.524Z,63.5
2023-07-25T00:10:21.656Z,63.6
2023-07-25T00:11:37.820Z,63.5
2023-07-25T00:12:54.083Z,63.5
2023-07-25T00:14:10.208Z,63.5
2023-07-25T00:15:26.344Z,63.5
2023-07-25T00:16:42.473Z,63.5
2023-07-25T00:17:58.632Z,63.6
2023-07-25T00:19:14.757Z,63.6
2023-07-25T00:20:30.898Z,63.6
2023-07-25T00:21:47.026Z,63.6
2023-07-25T00:23:03.155Z,63.6
2023-07-25T00:24:19.295Z,63.5
2023-07-25T00:25:35.443Z,63.5
2023-07-25T00:26:51.571Z,63.5
2023-07-25T00:28:07.700Z,63.5
2023-07-25T00:29:23.832Z,63.5
2023-07-25T00:30:39.983Z,63.5
2023-07-25T00:31:56.130Z,63.5
2023-07-25T00:33:12.371Z,63.5
2023-07-25T00:34:28.501Z,63.5
2023-07-25T00:35:44.640Z,63.5
2023-07-25T00:37:00.792Z,63.5
2023-07-25T00:38:16.929Z,63.5
2023-07-25T00:39:33.058Z,63.5
2023-07-25T00:40:49.198Z,63.5
2023-07-25T00:42:05.328Z,63.5
2023-07-25T00:43:21.480Z,63.5
2023-07-25T00:44:37.617Z,63.5
2023-07-25T00:45:53.748Z,63.5
2023-07-25T00:48:26.007Z,63.6
2023-07-25T00:49:42.156Z,63.6
2023-07-25T00:50:58.416Z,63.6
2023-07-25T00:52:14.545Z,63.6
2023-07-25T00:53:30.686Z,63.6
2023-07-25T00:54:46.822Z,63.6
2023-07-25T00:56:02.955Z,63.6
2023-07-25T00:57:19.103Z,63.6
2023-07-25T00:58:35.233Z,63.6
2023-07-25T00:59:51.363Z,63.6
2023-07-25T01:01:07.498Z,63.6
2023-07-25T01:02:23.648Z,63.6
2023-07-25T01:03:39.782Z,63.7
2023-07-25T01:04:55.905Z,63.7
2023-07-25T01:06:12.045Z,63.7
2023-07-25T01:07:28.174Z,63.7
2023-07-25T01:08:44.329Z,63.7
2023-07-25T01:10:00.452Z,63.7
2023-07-25T01:11:16.714Z,63.7
2023-07-25T01:12:32.839Z,63.7
2023-07-25T01:13:48.989Z,63.7
2023-07-25T01:15:05.117Z,63.8
2023-07-25T01:16:21.262Z,63.7
2023-07-25T01:17:37.394Z,63.7
2023-07-25T01:18:53.532Z,63.7
2023-07-25T01:20:09.665Z,63.8
2023-07-25T01:21:25.804Z,63.8
2023-07-25T01:22:41.935Z,63.8
2023-07-25T01:23:58.077Z,63.8
2023-07-25T01:25:14.200Z,63.8
2023-07-25T01:26:30.337Z,63.8
2023-07-25T01:27:46.479Z,63.8
2023-07-25T01:29:02.735Z,63.8
2023-07-25T01:30:18.875Z,63.8
2023-07-25T01:31:35.003Z,63.8
2023-07-25T01:32:51.135Z,63.8
2023-07-25T01:34:07.292Z,63.8
2023-07-25T01:35:23.425Z,63.9
2023-07-25T01:36:39.569Z,63.9
2023-07-25T01:37:55.684Z,63.9
2023-07-25T01:39:11.817Z,63.9
2023-07-25T01:40:27.974Z,63.9
2023-07-25T01:41:44.115Z,63.9
2023-07-25T01:43:00.247Z,64
2023-07-25T01:44:16.373Z,64
2023-07-25T01:45:32.505Z,64
2023-07-25T01:46:48.655Z,64
2023-07-25T01:48:04.790Z,64
2023-07-25T01:49:21.037Z,64.1
2023-07-25T01:50:37.173Z,64.1
2023-07-25T01:51:53.310Z,64.1
2023-07-25T01:53:09.466Z,64.1
2023-07-25T01:54:25.600Z,64.1
2023-07-25T01:55:41.717Z,64.1
2023-07-25T01:56:57.862Z,64.2
2023-07-25T01:58:13.991Z,64.2
2023-07-25T01:59:30.145Z,64.2
2023-07-25T02:00:46.268Z,64.2
2023-07-25T02:02:02.399Z,64.2
2023-07-25T02:03:18.530Z,64.2
2023-07-25T02:04:34.665Z,64.3
2023-07-25T02:05:50.811Z,64.2
2023-07-25T02:07:07.073Z,64.3
2023-07-25T02:08:23.211Z,64.3
2023-07-25T02:09:39.342Z,64.3
2023-07-25T02:10:55.471Z,64.3
2023-07-25T02:12:11.626Z,64.3
2023-07-25T02:13:27.761Z,64.3
2023-07-25T02:14:43.894Z,64.3
2023-07-25T02:16:00.025Z,64.3
2023-07-25T02:17:16.149Z,64.3
2023-07-25T02:18:32.296Z,64.4
2023-07-25T02:19:48.445Z,64.4
2023-07-25T02:21:04.571Z,64.4
2023-07-25T02:22:20.702Z,64.4
2023-07-25T02:23:36.832Z,64.4
2023-07-25T02:24:52.977Z,64.4
2023-07-25T02:26:09.116Z,64.4
2023-07-25T02:27:25.368Z,64.4
2023-07-25T02:28:41.505Z,64.4
2023-07-25T02:29:57.646Z,64.4
2023-07-25T02:31:13.777Z,64.5
2023-07-25T02:32:29.922Z,64.4
2023-07-25T02:33:46.041Z,64.5
2023-07-25T02:35:02.178Z,64.5
2023-07-25T02:36:18.317Z,64.5
2023-07-25T02:37:34.461Z,64.5
2023-07-25T02:38:50.609Z,64.5
2023-07-25T02:40:06.722Z,64.5
2023-07-25T02:41:22.869Z,64.5
2023-07-25T02:42:39.005Z,64.5
2023-07-25T02:43:55.149Z,64.5
2023-07-25T02:45:11.396Z,64.5
2023-07-25T02:46:27.532Z,64.5
2023-07-25T02:47:43.664Z,64.6
2023-07-25T02:48:59.798Z,64.6
2023-07-25T02:50:15.957Z,64.6
2023-07-25T02:51:32.075Z,64.6
2023-07-25T02:52:48.207Z,64.6
2023-07-25T02:54:04.349Z,64.6
2023-07-25T02:55:20.479Z,64.6
2023-07-25T02:56:36.633Z,64.6
2023-07-25T02:57:52.756Z,64.6
2023-07-25T02:59:08.889Z,64.6
2023-07-25T03:00:25.036Z,64.6
2023-07-25T03:01:41.158Z,64.6
2023-07-25T03:02:57.311Z,64.6
2023-07-25T03:04:13.436Z,64.6
2023-07-25T03:05:29.699Z,64.6
2023-07-25T03:06:45.833Z,64.6
2023-07-25T03:08:01.972Z,64.7
2023-07-25T03:09:18.122Z,64.7
2023-07-25T03:10:34.244Z,64.7
2023-07-25T03:11:50.377Z,64.7
2023-07-25T03:13:06.504Z,64.7
2023-07-25T03:14:22.653Z,64.7
2023-07-25T03:15:38.792Z,64.7
2023-07-25T03:16:54.927Z,64.7
2023-07-25T03:18:11.068Z,64.6
2023-07-25T03:19:27.185Z,64.7
2023-07-25T03:20:43.326Z,64.7
2023-07-25T03:21:59.483Z,64.7
2023-07-25T03:23:15.728Z,64.6
2023-07-25T03:24:31.869Z,64.7
2023-07-25T03:25:48.004Z,64.7
2023-07-25T03:27:04.132Z,64.7
2023-07-25T03:28:20.286Z,64.7
2023-07-25T03:29:36.405Z,64.7
2023-07-25T03:30:52.538Z,64.7
2023-07-25T03:32:08.676Z,64.7
2023-07-25T03:33:24.810Z,64.6
2023-07-25T03:34:40.963Z,64.6
2023-07-25T03:35:57.081Z,64.6
2023-07-25T03:37:13.219Z,64.6
2023-07-25T03:38:29.360Z,64.6
2023-07-25T03:39:45.482Z,64.6
2023-07-25T03:41:01.628Z,64.6
2023-07-25T03:42:17.764Z,64.6
2023-07-25T03:43:34.020Z,64.6
2023-07-25T03:44:50.167Z,64.6
2023-07-25T03:46:06.300Z,64.6
2023-07-25T03:47:22.442Z,64.6
2023-07-25T03:48:38.569Z,64.5
2023-07-25T03:49:54.702Z,64.5
2023-07-25T03:51:10.848Z,64.5
2023-07-25T03:52:26.964Z,64.5
2023-07-25T03:53:43.114Z,64.5
2023-07-25T03:54:59.258Z,64.5
2023-07-25T03:56:15.390Z,64.5
2023-07-25T03:57:31.522Z,64.5
2023-07-25T03:58:47.656Z,64.4
2023-07-25T04:00:03.796Z,64.4
2023-07-25T04:01:20.051Z,64.4
2023-07-25T04:02:36.180Z,64.4
2023-07-25T04:03:52.319Z,64.4
2023-07-25T04:05:08.462Z,64.4
2023-07-25T04:06:24.610Z,64.4
2023-07-25T04:07:40.736Z,64.4
2023-07-25T04:08:56.873Z,64.4
2023-07-25T04:10:12.997Z,64.4
2023-07-25T04:11:29.141Z,64.3
2023-07-25T04:12:45.282Z,64.3
2023-07-25T04:14:01.415Z,64.3
2023-07-25T04:15:17.547Z,64.3
2023-07-25T04:16:33.691Z,64.3
2023-07-25T04:17:49.824Z,64.3
2023-07-25T04:19:05.954Z,64.2
2023-07-25T04:20:22.100Z,64.2
2023-07-25T04:21:38.348Z,64.2
2023-07-25T04:22:54.480Z,64.2
2023-07-25T04:24:10.624Z,64.2
2023-07-25T04:25:26.759Z,64.1
2023-07-25T04:26:42.896Z,64.1
2023-07-25T04:27:59.033Z,64.1
2023-07-25T04:29:15.287Z,64
2023-07-25T04:30:31.421Z,63.9
2023-07-25T04:31:47.583Z,63.9
2023-07-25T04:33:03.719Z,63.9
2023-07-25T04:34:19.835Z,63.8
2023-07-25T04:35:35.977Z,63.8
2023-07-25T04:36:52.101Z,63.6
2023-07-25T04:38:08.257Z,63.6
2023-07-25T04:39:24.384Z,63.6
2023-07-25T04:40:40.516Z,63.5
2023-07-25T04:41:56.671Z,63.6
2023-07-25T04:43:12.782Z,63.4
2023-07-25T04:44:28.937Z,63.4
2023-07-25T04:45:45.067Z,63.4
2023-07-25T04:47:01.333Z,63.4
2023-07-25T04:48:17.456Z,63.4
2023-07-25T04:49:33.592Z,63.3
2023-07-25T04:50:49.748Z,63.3
2023-07-25T04:52:05.882Z,63.3
2023-07-25T04:53:22.008Z,63.2
2023-07-25T04:54:38.146Z,63.2
2023-07-25T04:55:54.272Z,63.2
2023-07-25T04:57:10.422Z,63.1
2023-07-25T04:58:26.555Z,63.1
2023-07-25T04:59:42.693Z,63.1
2023-07-25T05:00:58.822Z,63
2023-07-25T05:02:14.959Z,63
2023-07-25T05:03:31.097Z,63
2023-07-25T05:04:47.365Z,63
2023-07-25T05:06:03.503Z,63
2023-07-25T05:07:19.637Z,63
2023-07-25T05:08:35.750Z,63
2023-07-25T05:09:51.902Z,63
2023-07-25T05:11:08.035Z,63
2023-07-25T05:12:24.178Z,62.9
2023-07-25T05:13:40.316Z,62.9
2023-07-25T05:14:56.448Z,62.9
2023-07-25T05:16:12.589Z,62.9
2023-07-25T05:17:28.733Z,62.8
2023-07-25T05:18:44.847Z,62.8
2023-07-25T05:20:00.995Z,62.7
2023-07-25T05:21:17.122Z,62.7
2023-07-25T05:22:33.278Z,62.7
2023-07-25T05:23:49.406Z,62.7
2023-07-25T05:25:05.667Z,62.6
2023-07-25T05:26:21.796Z,62.6
2023-07-25T05:27:37.930Z,62.5
2023-07-25T05:28:54.066Z,62.5
2023-07-25T05:30:10.200Z,62.4
2023-07-25T05:31:26.335Z,62.4
2023-07-25T05:32:42.481Z,62.4
2023-07-25T05:33:58.605Z,62.4
2023-07-25T05:35:14.768Z,62.4
2023-07-25T05:36:30.890Z,62.4
2023-07-25T05:37:47.031Z,62.4
2023-07-25T05:39:03.164Z,62.4
2023-07-25T05:40:19.288Z,62.4
2023-07-25T05:41:35.436Z,62.4
2023-07-25T05:42:51.694Z,62.4
2023-07-25T05:44:07.836Z,62.3
2023-07-25T05:45:23.973Z,62.2
2023-07-25T05:46:40.089Z,62.1
2023-07-25T05:47:56.246Z,62
2023-07-25T05:49:12.376Z,61.9
2023-07-25T05:50:28.506Z,61.8
2023-07-25T05:51:44.641Z,61.8
2023-07-25T05:53:00.787Z,61.7
2023-07-25T05:54:16.928Z,61.6
2023-07-25T05:55:33.061Z,61.5
2023-07-25T05:56:49.189Z,61.4
2023-07-25T05:58:05.329Z,61.3
2023-07-25T05:59:21.464Z,61.3
2023-07-25T06:00:37.615Z,61.2
2023-07-25T06:01:53.732Z,61.1
2023-07-25T06:03:09.998Z,61.1
2023-07-25T06:04:26.128Z,61.1
2023-07-25T06:05:42.267Z,61.2
2023-07-25T06:06:58.401Z,61.2
2023-07-25T06:08:14.549Z,61.2
2023-07-25T06:09:30.671Z,61.3
2023-07-25T06:10:46.818Z,61.3
2023-07-25T06:12:02.936Z,61.3
2023-07-25T06:13:19.092Z,61.4
2023-07-25T06:14:35.232Z,61.4
2023-07-25T06:15:51.358Z,61.3
2023-07-25T06:17:07.485Z,61.3
2023-07-25T06:18:23.621Z,61.2
2023-07-25T06:19:39.767Z,61.1
2023-07-25T06:20:56.015Z,61
2023-07-25T06:22:12.153Z,60.9
2023-07-25T06:23:28.286Z,60.7
2023-07-25T06:24:44.427Z,60.7
2023-07-25T06:26:00.570Z,60.7
2023-07-25T06:27:16.706Z,60.8
2023-07-25T06:28:32.833Z,60.9
2023-07-25T06:29:48.973Z,61
2023-07-25T06:31:05.108Z,61.1
2023-07-25T06:32:21.256Z,61.1
2023-07-25T06:33:37.377Z,61.1
2023-07-25T06:34:53.527Z,61.2
2023-07-25T06:36:09.659Z,61.2
2023-07-25T06:37:25.780Z,61.1
2023-07-25T06:38:41.934Z,61.1
2023-07-25T06:39:58.062Z,61.1
2023-07-25T06:41:14.322Z,61.1
2023-07-25T06:42:30.451Z,61
2023-07-25T06:43:46.589Z,61
2023-07-25T06:45:02.736Z,61
2023-07-25T06:46:18.867Z,61
2023-07-25T06:47:34.991Z,60.9
2023-07-25T06:48:51.139Z,60.8
2023-07-25T06:50:07.275Z,60.7
2023-07-25T06:51:23.409Z,60.6
2023-07-25T06:52:39.545Z,60.4
2023-07-25T06:53:55.682Z,60.3
2023-07-25T06:55:11.823Z,60.2
2023-07-25T06:56:27.947Z,60.1
2023-07-25T06:57:44.096Z,60
2023-07-25T06:59:00.355Z,60
2023-07-25T07:00:16.487Z,60
2023-07-25T07:01:32.616Z,60.1
2023-07-25T07:02:48.746Z,60.1
2023-07-25T07:04:04.890Z,60.1
2023-07-25T07:05:21.035Z,60.1
2023-07-25T07:06:37.165Z,60.2
2023-07-25T07:07:53.289Z,60.2
2023-07-25T07:09:09.432Z,60.2
2023-07-25T07:10:25.570Z,60.3
2023-07-25T07:11:41.721Z,60.2
2023-07-25T07:12:57.841Z,60.2
2023-07-25T07:14:13.979Z,60.2
2023-07-25T07:15:30.102Z,60.2
2023-07-25T07:16:46.263Z,60.2
2023-07-25T07:18:02.388Z,60.1
2023-07-25T07:19:18.639Z,60.1
2023-07-25T07:20:34.785Z,60
2023-07-25T07:21:50.918Z,60
2023-07-25T07:23:07.056Z,60
2023-07-25T07:24:23.198Z,59.9
2023-07-25T07:25:39.323Z,59.9
2023-07-25T07:26:55.462Z,59.8
2023-07-25T07:28:11.604Z,59.7
2023-07-25T07:29:27.746Z,59.7
2023-07-25T07:30:43.882Z,59.7
2023-07-25T07:32:00.004Z,59.7
2023-07-25T07:33:16.144Z,59.7
2023-07-25T07:34:32.270Z,59.7
2023-07-25T07:35:48.426Z,59.6
2023-07-25T07:37:04.683Z,59.5
2023-07-25T07:38:20.806Z,59.4
2023-07-25T07:39:36.948Z,59
2023-07-25T07:40:53.087Z,58.9
2023-07-25T07:42:09.232Z,58.7
2023-07-25T07:43:25.361Z,58.6
2023-07-25T07:44:41.495Z,58.4
2023-07-25T07:45:57.629Z,58.2
2023-07-25T07:47:13.768Z,58.1
2023-07-25T07:48:29.914Z,58
2023-07-25T07:49:46.043Z,57.9
2023-07-25T07:51:02.186Z,57.8
2023-07-25T07:52:18.000Z,57.8
2023-07-25T07:53:34.443Z,57.9
2023-07-25T07:54:50.582Z,57.9
2023-07-25T07:56:06.716Z,57.9
2023-07-25T07:57:22.981Z,58
2023-07-25T07:58:39.123Z,58.1
2023-07-25T07:59:55.254Z,58.2
2023-07-25T08:01:11.402Z,58.3
2023-07-25T08:02:27.525Z,58.4
2023-07-25T08:03:43.657Z,58.6
2023-07-25T08:04:59.799Z,58.6
2023-07-25T08:06:15.922Z,58.6
2023-07-25T08:07:32.075Z,58.4
2023-07-25T08:08:48.209Z,58.2
2023-07-25T08:10:04.337Z,57.8
2023-07-25T08:11:20.469Z,55.7
2023-07-25T08:12:36.609Z,55
2023-07-25T08:13:52.764Z,55.1
2023-07-25T08:15:09.020Z,54.2
2023-07-25T08:16:25.156Z,52.3
2023-07-25T08:17:41.287Z,50.7
2023-07-25T08:18:57.413Z,49.1
2023-07-25T08:20:13.555Z,47.7
2023-07-25T08:21:29.687Z,47
2023-07-25T08:22:45.821Z,47.7
2023-07-25T08:24:01.954Z,48.2
2023-07-25T08:25:18.094Z,48.6
2023-07-25T08:26:34.250Z,49.3
2023-07-25T08:27:50.387Z,49.8
2023-07-25T08:29:06.520Z,50.3
2023-07-25T08:30:22.641Z,50.9
2023-07-25T08:31:38.779Z,51.3
2023-07-25T08:32:54.932Z,51.7
2023-07-25T08:34:11.066Z,50.2
2023-07-25T08:35:27.320Z,49.5
2023-07-25T08:36:43.458Z,50.1
2023-07-25T08:37:59.592Z,50.5
2023-07-25T08:39:15.739Z,50.9
2023-07-25T08:40:31.865Z,51.3
2023-07-25T08:41:48.008Z,51.4
2023-07-25T08:43:04.125Z,49.7
2023-07-25T08:44:20.256Z,48.1
2023-07-25T08:45:36.412Z,46.9
2023-07-25T08:46:52.538Z,46.9
2023-07-25T08:48:08.805Z,46.6
2023-07-25T08:49:24.932Z,45.3
2023-07-25T08:50:41.070Z,44.2
2023-07-25T08:51:57.223Z,43.3
2023-07-25T08:53:13.000Z,42.4
2023-07-25T08:54:29.489Z,41.6
2023-07-25T08:55:45.624Z,40.8
2023-07-25T08:57:01.757Z,40.1
2023-07-25T08:58:17.903Z,39.8
2023-07-25T08:59:34.038Z,39.2
2023-07-25T09:00:50.177Z,39.2
2023-07-25T09:02:06.311Z,39.9
2023-07-25T09:03:22.447Z,39.9
2023-07-25T09:04:38.597Z,40
2023-07-25T09:05:54.847Z,39.5
2023-07-25T09:07:10.988Z,39.1
2023-07-25T09:08:27.122Z,39.1
2023-07-25T09:09:43.257Z,40
2023-07-25T09:10:59.388Z,41
2023-07-25T09:12:15.522Z,42
2023-07-25T09:13:31.665Z,43
2023-07-25T09:14:47.790Z,43.9
2023-07-25T09:16:03.938Z,44.9
2023-07-25T09:17:20.075Z,45.7
2023-07-25T09:18:36.210Z,46.4
2023-07-25T09:19:52.348Z,47.1
2023-07-25T09:21:08.486Z,47.6
2023-07-25T09:22:24.610Z,48.1
2023-07-25T09:23:40.759Z,48.5
2023-07-25T09:24:56.907Z,48
2023-07-25T09:26:13.161Z,48.3
2023-07-25T09:27:29.283Z,48.6
2023-07-25T09:28:45.423Z,48.9
2023-07-25T09:30:01.561Z,47.5
2023-07-25T09:31:17.695Z,45.7
2023-07-25T09:32:33.844Z,44.2
2023-07-25T09:33:49.975Z,42.9
2023-07-25T09:35:06.101Z,42
2023-07-25T09:36:22.260Z,41.3
2023-07-25T09:37:38.378Z,40.9
2023-07-25T09:38:54.528Z,40
2023-07-25T09:40:10.660Z,39.4
2023-07-25T09:41:26.780Z,38.7
2023-07-25T09:42:42.937Z,38.2
2023-07-25T09:43:59.200Z,37.8
2023-07-25T09:45:15.340Z,37.4
2023-07-25T09:46:31.458Z,37
2023-07-25T09:47:47.598Z,37.2
2023-07-25T09:49:03.749Z,36.7
2023-07-25T09:50:19.884Z,37.4
2023-07-25T09:51:36.006Z,38.5
2023-07-25T09:52:52.142Z,39.5
2023-07-25T09:54:08.281Z,40.5
2023-07-25T09:55:24.437Z,41.5
2023-07-25T09:56:40.569Z,42.5
2023-07-25T09:57:56.699Z,43.4
2023-07-25T09:59:12.829Z,44.1
2023-07-25T10:00:28.972Z,44.9
2023-07-25T10:01:45.117Z,45.5
2023-07-25T10:03:01.239Z,45.8
2023-07-25T10:04:17.503Z,44.3
2023-07-25T10:05:33.642Z,43.1
2023-07-25T10:06:49.780Z,42.1
2023-07-25T10:08:05.917Z,42.4
2023-07-25T10:09:22.045Z,43
2023-07-25T10:10:38.190Z,43.6
2023-07-25T10:11:54.323Z,44.2
2023-07-25T10:13:10.447Z,44.9
2023-07-25T10:14:26.596Z,45.6
2023-07-25T10:15:42.744Z,46.1
2023-07-25T10:16:58.873Z,46.6
2023-07-25T10:18:15.010Z,47
2023-07-25T10:19:31.135Z,47.5
2023-07-25T10:20:47.296Z,47.9
2023-07-25T10:22:03.551Z,48.3
2023-07-25T10:23:19.669Z,48.6
2023-07-25T10:24:35.820Z,49
2023-07-25T10:25:51.948Z,49.1
2023-07-25T10:27:08.093Z,49.2
2023-07-25T10:28:24.235Z,49.2
2023-07-25T10:29:40.363Z,49.3
2023-07-25T10:30:56.487Z,49.3
2023-07-25T10:32:12.621Z,48.8
2023-07-25T10:33:28.768Z,48
2023-07-25T10:34:44.915Z,47.3
2023-07-25T10:36:01.038Z,45.6
2023-07-25T10:37:17.185Z,44.1
2023-07-25T10:38:33.316Z,42.8
2023-07-25T10:39:49.451Z,41.8
2023-07-25T10:41:05.591Z,41.6
2023-07-25T10:42:21.858Z,42
2023-07-25T10:43:37.980Z,42.7
2023-07-25T10:44:54.126Z,43.4
2023-07-25T10:46:10.260Z,44.1
2023-07-25T10:47:26.397Z,44.7
2023-07-25T10:48:42.525Z,45.3
2023-07-25T10:49:58.667Z,46
2023-07-25T10:51:14.794Z,46.4
2023-07-25T10:52:30.940Z,46.9
2023-07-25T10:53:47.090Z,47.3
2023-07-25T10:55:03.225Z,47.7
2023-07-25T10:56:19.360Z,48
2023-07-25T10:57:35.487Z,48.3
2023-07-25T10:58:51.639Z,48.5
2023-07-25T11:00:07.881Z,48.8
2023-07-25T11:01:24.015Z,49
2023-07-25T11:02:40.162Z,49.2
2023-07-25T11:03:56.281Z,49.2
2023-07-25T11:05:12.442Z,49.3
2023-07-25T11:06:28.570Z,49.5
2023-07-25T11:07:44.700Z,49.4
2023-07-25T11:09:00.839Z,48.3
2023-07-25T11:10:16.964Z,47.2
2023-07-25T11:11:33.118Z,47.4
2023-07-25T11:12:49.255Z,47.5
2023-07-25T11:14:05.389Z,46.5
2023-07-25T11:15:21.517Z,45.6
2023-07-25T11:16:37.659Z,44.7
2023-07-25T11:17:53.792Z,44
2023-07-25T11:19:09.932Z,43.6
2023-07-25T11:20:26.202Z,43.3
2023-07-25T11:21:42.319Z,42.8
2023-07-25T11:22:58.465Z,42.5
2023-07-25T11:24:14.607Z,42.2
2023-07-25T11:25:30.752Z,42
2023-07-25T11:26:46.871Z,42
2023-07-25T11:28:03.008Z,42.4
2023-07-25T11:29:19.147Z,42.5
2023-07-25T11:30:35.293Z,43.1
2023-07-25T11:31:51.418Z,43.1
2023-07-25T11:33:07.566Z,43.5
2023-07-25T11:34:23.695Z,44
2023-07-25T11:35:39.829Z,44.6
2023-07-25T11:36:55.978Z,45.1
2023-07-25T11:38:12.234Z,45.7
2023-07-25T11:39:28.363Z,46.3
2023-07-25T11:40:44.509Z,46.7
2023-07-25T11:42:00.643Z,47.2
2023-07-25T11:43:16.793Z,47.6
2023-07-25T11:44:32.925Z,47.9
2023-07-25T11:45:49.059Z,48.1
2023-07-25T11:47:05.179Z,48.5
2023-07-25T11:48:21.319Z,48.6
2023-07-25T11:49:37.459Z,48.9
2023-07-25T11:50:53.595Z,49
2023-07-25T11:52:09.732Z,49.2
2023-07-25T11:53:25.859Z,49.3
2023-07-25T11:54:42.010Z,49.5
2023-07-25T11:55:58.139Z,49.7
2023-07-25T11:57:14.282Z,49.8
2023-07-25T11:58:30.543Z,49.9
2023-07-25T11:59:46.662Z,50.1
2023-07-25T12:01:02.798Z,50.2
2023-07-25T12:02:18.953Z,50.3
2023-07-25T12:03:35.084Z,50.4
2023-07-25T12:04:51.221Z,50.5
2023-07-25T12:06:07.354Z,50.5
2023-07-25T12:07:23.493Z,50.5
2023-07-25T12:08:39.644Z,50.5
2023-07-25T12:09:55.780Z,50.4
2023-07-25T12:11:11.897Z,50.4
2023-07-25T12:12:28.047Z,50.5
2023-07-25T12:13:44.172Z,50.5
2023-07-25T12:15:00.321Z,50.5
2023-07-25T12:16:16.578Z,50.6
2023-07-25T12:17:32.715Z,50.6
2023-07-25T12:18:48.842Z,50.7
2023-07-25T12:20:04.987Z,50.7
2023-07-25T12:21:21.123Z,50.8
2023-07-25T12:22:37.256Z,50.8
2023-07-25T12:23:53.383Z,50.9
2023-07-25T12:25:09.532Z,50.9
2023-07-25T12:26:25.671Z,51
2023-07-25T12:27:41.000Z,51
2023-07-25T12:28:57.938Z,51
2023-07-25T12:30:14.074Z,51
2023-07-25T12:31:30.210Z,51
2023-07-25T12:32:46.333Z,51
2023-07-25T12:34:02.483Z,51.1
2023-07-25T12:35:18.627Z,51.1
2023-07-25T12:36:34.880Z,51.1
2023-07-25T12:37:51.015Z,51.3
2023-07-25T12:39:07.154Z,51.3
2023-07-25T12:40:23.288Z,51.3
2023-07-25T12:41:39.428Z,51.3
2023-07-25T12:42:55.558Z,51.3
2023-07-25T12:44:11.705Z,51.4
2023-07-25T12:45:27.821Z,51.4
2023-07-25T12:46:43.980Z,51.4
2023-07-25T12:48:00.105Z,51.4
2023-07-25T12:49:16.239Z,51.4
2023-07-25T12:50:32.376Z,51.5
2023-07-25T12:51:48.518Z,51.5
2023-07-25T12:53:04.657Z,51.5
2023-07-25T12:54:20.919Z,51.5
2023-07-25T12:55:37.047Z,51.7
2023-07-25T12:56:53.179Z,51.8
2023-07-25T12:58:09.314Z,51.8
2023-07-25T12:59:25.462Z,51.9
2023-07-25T13:00:41.606Z,51.9
2023-07-25T13:01:57.738Z,52
2023-07-25T13:03:13.863Z,52.1
2023-07-25T13:04:30.121Z,52.1
2023-07-25T13:05:46.264Z,52.1
2023-07-25T13:07:02.397Z,52.1
2023-07-25T13:08:18.542Z,52.1
2023-07-25T13:09:34.675Z,52.1
2023-07-25T13:10:50.808Z,52.1
2023-07-25T13:12:06.945Z,52.2
2023-07-25T13:13:23.082Z,52.2
2023-07-25T13:14:39.227Z,52.3
2023-07-25T13:15:55.341Z,52.4
2023-07-25T13:17:11.475Z,52.5
2023-07-25T13:18:27.637Z,52.5
2023-07-25T13:19:43.775Z,52.6
2023-07-25T13:20:59.906Z,52.6
2023-07-25T13:22:16.148Z,52.6
2023-07-25T13:23:32.295Z,52.6
2023-07-25T13:24:48.431Z,52.6
2023-07-25T13:26:04.560Z,52.7
2023-07-25T13:27:20.704Z,52.6
2023-07-25T13:28:36.829Z,52.7
2023-07-25T13:29:52.976Z,52.7
2023-07-25T13:31:09.115Z,52.7
2023-07-25T13:32:25.246Z,52.7
2023-07-25T13:33:41.375Z,52.8
2023-07-25T13:34:57.527Z,52.9
2023-07-25T13:36:13.655Z,53
2023-07-25T13:37:29.793Z,53
2023-07-25T13:38:45.923Z,53
2023-07-25T13:40:02.179Z,53.1
2023-07-25T13:41:18.331Z,53.1
2023-07-25T13:42:34.455Z,53.2
2023-07-25T13:43:50.597Z,53.2
2023-07-25T13:45:06.731Z,53.3
2023-07-25T13:46:22.872Z,53.3
2023-07-25T13:47:38.996Z,53.3
2023-07-25T13:48:55.146Z,53.3
2023-07-25T13:50:11.280Z,53.4
2023-07-25T13:51:27.421Z,53.4
2023-07-25T13:52:43.542Z,53.5
2023-07-25T13:53:59.676Z,53.5
2023-07-25T13:55:15.819Z,53.5
2023-07-25T13:56:31.963Z,53.5
2023-07-25T13:57:48.219Z,53.6
2023-07-25T13:59:04.363Z,53.6
2023-07-25T14:00:20.491Z,53.6
2023-07-25T14:01:36.617Z,53.6
2023-07-25T14:02:52.775Z,53.6
2023-07-25T14:04:08.899Z,53.7
2023-07-25T14:05:25.046Z,53.7
2023-07-25T14:06:41.161Z,53.7
2023-07-25T14:07:57.313Z,53.7
2023-07-25T14:09:13.455Z,53.7
2023-07-25T14:10:29.576Z,53.7
2023-07-25T14:13:01.846Z,53.8
2023-07-25T14:14:17.995Z,53.8
2023-07-25T14:15:34.134Z,53.8
2023-07-25T14:16:50.272Z,53.8
2023-07-25T14:18:06.515Z,53.8
2023-07-25T14:19:22.651Z,53.8
2023-07-25T14:20:38.785Z,53.8
2023-07-25T14:21:54.943Z,53.9
2023-07-25T14:23:11.066Z,53.9
2023-07-25T14:24:27.197Z,53.9
2023-07-25T14:25:43.342Z,53.9
2023-07-25T14:26:59.472Z,53.9
2023-07-25T14:28:15.620Z,54
2023-07-25T14:29:31.756Z,54
2023-07-25T14:30:47.891Z,54
2023-07-25T14:32:04.021Z,54
2023-07-25T14:33:20.157Z,54.1
2023-07-25T14:34:36.292Z,54.1
2023-07-25T14:35:52.561Z,54.1
2023-07-25T14:37:08.691Z,54.1
2023-07-25T14:38:24.821Z,54.1
2023-07-25T14:39:40.958Z,54.1
2023-07-25T14:40:57.107Z,54.2
2023-07-25T14:42:13.243Z,54.2
2023-07-25T14:43:29.371Z,54.2
2023-07-25T14:44:45.500Z,54.2
2023-07-25T14:46:01.640Z,54.2
2023-07-25T14:47:17.777Z,54.2
2023-07-25T14:48:33.923Z,54.2
2023-07-25T14:49:50.041Z,54.3
2023-07-25T14:51:06.184Z,54.4
2023-07-25T14:52:22.318Z,54.5
2023-07-25T14:53:38.461Z,54.5
2023-07-25T14:54:54.602Z,54.5
2023-07-25T14:56:10.861Z,54.6
2023-07-25T14:57:26.975Z,54.6
2023-07-25T14:58:43.108Z,54.6
2023-07-25T14:59:59.273Z,54.5
2023-07-25T15:01:15.407Z,54.5
2023-07-25T15:02:31.537Z,54.5
2023-07-25T15:03:47.657Z,54.5
2023-07-25T15:05:03.806Z,54.5
2023-07-25T15:06:19.940Z,54.4
2023-07-25T15:07:36.079Z,54.4
2023-07-25T15:08:52.223Z,54.4
2023-07-25T15:10:08.346Z,54.2
2023-07-25T15:11:24.487Z,54.2
2023-07-25T15:12:40.625Z,54.1
2023-07-25T15:13:56.877Z,54.1
2023-07-25T15:15:13.026Z,54.1
2023-07-25T15:16:29.156Z,54
2023-07-25T15:17:45.291Z,54
2023-07-25T15:19:01.430Z,54
2023-07-25T15:20:17.557Z,54
2023-07-25T15:21:33.698Z,54
2023-07-25T15:22:49.825Z,54
2023-07-25T15:24:05.973Z,54
2023-07-25T15:25:22.106Z,54
2023-07-25T15:26:38.254Z,54
2023-07-25T15:27:54.371Z,54
2023-07-25T15:29:10.520Z,54
2023-07-25T15:30:26.646Z,54
2023-07-25T15:31:42.795Z,54
2023-07-25T15:32:58.929Z,54
2023-07-25T15:34:15.177Z,54.1
2023-07-25T15:35:31.306Z,54.1
2023-07-25T15:36:47.448Z,54.2
2023-07-25T15:38:03.588Z,54.3
2023-07-25T15:39:19.721Z,54.3
2023-07-25T15:40:35.871Z,54.3
2023-07-25T15:41:52.003Z,54.4
2023-07-25T15:43:08.137Z,54.4
2023-07-25T15:44:24.273Z,54.5
2023-07-25T15:45:40.411Z,54.5
2023-07-25T15:46:56.540Z,54.5
2023-07-25T15:48:12.683Z,54.6
2023-07-25T15:49:28.810Z,54.6
2023-07-25T15:50:44.953Z,54.7
2023-07-25T15:52:01.216Z,54.7
2023-07-25T15:53:17.342Z,54.7
2023-07-25T15:54:33.487Z,54.8
2023-07-25T15:55:49.618Z,54.8
2023-07-25T15:57:05.767Z,54.9
2023-07-25T15:58:21.883Z,54.9
2023-07-25T15:59:38.032Z,55
2023-07-25T16:00:54.162Z,55
2023-07-25T16:02:10.285Z,55.1
2023-07-25T16:03:26.431Z,55.1
2023-07-25T16:04:42.577Z,55.1
2023-07-25T16:05:58.709Z,55.1
2023-07-25T16:07:14.842Z,55.2
2023-07-25T16:08:30.968Z,55.3
2023-07-25T16:09:47.114Z,55.3
2023-07-25T16:11:03.245Z,55.4
2023-07-25T16:12:19.516Z,55.4
2023-07-25T16:13:35.644Z,55.4
2023-07-25T16:14:51.781Z,55.5
2023-07-25T16:16:07.928Z,55.6
2023-07-25T16:17:24.047Z,55.6
2023-07-25T16:18:40.193Z,55.7
2023-07-25T16:19:56.331Z,55.8
2023-07-25T16:21:12.462Z,55.9
2023-07-25T16:22:28.610Z,55.9
2023-07-25T16:23:44.744Z,56
2023-07-25T16:25:00.868Z,56
2023-07-25T16:26:17.002Z,56.1
2023-07-25T16:27:33.141Z,56.1
2023-07-25T16:28:49.289Z,56.2
2023-07-25T16:30:05.543Z,56.2
2023-07-25T16:31:21.679Z,56.3
2023-07-25T16:32:37.812Z,56.4
2023-07-25T16:33:53.939Z,56.5
2023-07-25T16:35:10.103Z,56.7
2023-07-25T16:36:26.233Z,56.7
2023-07-25T16:37:42.357Z,56.8
2023-07-25T16:38:58.494Z,56.8
2023-07-25T16:40:14.635Z,56.9
2023-07-25T16:41:30.784Z,57
2023-07-25T16:42:46.913Z,57
2023-07-25T16:44:03.043Z,57.1
2023-07-25T16:45:19.173Z,57.2
2023-07-25T16:46:35.316Z,57.2
2023-07-25T16:47:51.466Z,57.3
2023-07-25T16:49:07.581Z,57.3
2023-07-25T16:50:23.847Z,57.4
2023-07-25T16:51:39.983Z,57.4
2023-07-25T16:52:56.103Z,57.5
2023-07-25T16:54:12.266Z,57.5
2023-07-25T16:55:28.398Z,57.6
2023-07-25T16:56:44.527Z,57.7
2023-07-25T16:58:00.655Z,57.7
2023-07-25T16:59:16.792Z,57.7
2023-07-25T17:00:32.947Z,57.8
2023-07-25T17:01:49.080Z,57.8
2023-07-25T17:03:05.203Z,57.9